sensor_id;sensor_type;location;lat;lon;timestamp;P1;durP1;ratioP1;P2;durP2;ratioP2
7181;SDS011;3632;42.724;23.298;2022-09-09T00:00:05;10.63;;;8.30;;
7181;SDS011;3632;42.724;23.298;2022-09-09T00:02:37;9.07;;;8.13;;
7181;SDS011;3632;42.724;23.298;2022-09-09T00:05:09;8.37;;;7.57;;
7181;SDS011;3632;42.724;23.298;2022-09-09T00:07:47;10.57;;;8.53;;
7181;SDS011;3632;42.724;23.298;2022-09-09T00:10:20;8.90;;;8.10;;
7181;SDS011;3632;42.724;23.298;2022-09-09T00:12:55;10.77;;;8.50;;
7181;SDS011;3632;42.724;23.298;2022-09-09T00:15:27;8.60;;;7.77;;
7181;SDS011;3632;42.724;23.298;2022-09-09T00:18:01;9.10;;;8.17;;
7181;SDS011;3632;42.724;23.298;2022-09-09T00:20:39;9.30;;;8.37;;
7181;SDS011;3632;42.724;23.298;2022-09-09T00:23:12;9.33;;;8.40;;
7181;SDS011;3632;42.724;23.298;2022-09-09T00:25:48;10.70;;;8.50;;
7181;SDS011;3632;42.724;23.298;2022-09-09T00:28:23;10.10;;;9.10;;
7181;SDS011;3632;42.724;23.298;2022-09-09T00:30:54;12.67;;;9.17;;
7181;SDS011;3632;42.724;23.298;2022-09-09T00:33:22;10.20;;;8.60;;
7181;SDS011;3632;42.724;23.298;2022-09-09T00:35:51;10.40;;;9.03;;
7181;SDS011;3632;42.724;23.298;2022-09-09T00:38:23;9.50;;;8.60;;
7181;SDS011;3632;42.724;23.298;2022-09-09T00:40:58;10.20;;;8.87;;
7181;SDS011;3632;42.724;23.298;2022-09-09T00:43:31;9.50;;;8.03;;
7181;SDS011;3632;42.724;23.298;2022-09-09T00:46:11;12.90;;;8.90;;
7181;SDS011;3632;42.724;23.298;2022-09-09T00:48:59;12.13;;;8.77;;
7181;SDS011;3632;42.724;23.298;2022-09-09T00:51:38;10.03;;;9.00;;
7181;SDS011;3632;42.724;23.298;2022-09-09T00:54:16;9.47;;;8.57;;
7181;SDS011;3632;42.724;23.298;2022-09-09T00:56:58;10.13;;;8.70;;
7181;SDS011;3632;42.724;23.298;2022-09-09T00:59:32;10.73;;;8.50;;
7181;SDS011;3632;42.724;23.298;2022-09-09T01:02:09;10.83;;;8.33;;
7181;SDS011;3632;42.724;23.298;2022-09-09T01:04:41;10.77;;;8.70;;
7181;SDS011;3632;42.724;23.298;2022-09-09T01:07:11;10.20;;;9.30;;
7181;SDS011;3632;42.724;23.298;2022-09-09T01:09:45;10.20;;;8.80;;
7181;SDS011;3632;42.724;23.298;2022-09-09T01:12:24;10.40;;;9.40;;
7181;SDS011;3632;42.724;23.298;2022-09-09T01:14:56;10.57;;;9.13;;
7181;SDS011;3632;42.724;23.298;2022-09-09T01:17:31;10.17;;;8.83;;
7181;SDS011;3632;42.724;23.298;2022-09-09T01:20:05;10.60;;;9.50;;
7181;SDS011;3632;42.724;23.298;2022-09-09T01:22:37;10.43;;;9.20;;
7181;SDS011;3632;42.724;23.298;2022-09-09T01:25:18;9.87;;;8.93;;
7181;SDS011;3632;42.724;23.298;2022-09-09T01:27:52;9.43;;;8.43;;
7181;SDS011;3632;42.724;23.298;2022-09-09T01:30:22;11.10;;;8.80;;
7181;SDS011;3632;42.724;23.298;2022-09-09T01:32:50;12.23;;;9.00;;
7181;SDS011;3632;42.724;23.298;2022-09-09T01:35:22;10.37;;;8.60;;
7181;SDS011;3632;42.724;23.298;2022-09-09T01:37:58;11.10;;;9.40;;
7181;SDS011;3632;42.724;23.298;2022-09-09T01:40:25;11.13;;;8.93;;
7181;SDS011;3632;42.724;23.298;2022-09-09T01:42:53;12.27;;;8.90;;
7181;SDS011;3632;42.724;23.298;2022-09-09T01:45:21;10.77;;;9.70;;
7181;SDS011;3632;42.724;23.298;2022-09-09T01:47:48;11.50;;;9.60;;
7181;SDS011;3632;42.724;23.298;2022-09-09T01:50:15;10.70;;;9.60;;
7181;SDS011;3632;42.724;23.298;2022-09-09T01:52:42;10.87;;;9.73;;
7181;SDS011;3632;42.724;23.298;2022-09-09T01:55:13;9.80;;;8.90;;
7181;SDS011;3632;42.724;23.298;2022-09-09T01:57:42;10.77;;;9.63;;
7181;SDS011;3632;42.724;23.298;2022-09-09T02:00:18;10.17;;;9.27;;
7181;SDS011;3632;42.724;23.298;2022-09-09T02:02:48;11.43;;;9.57;;
7181;SDS011;3632;42.724;23.298;2022-09-09T02:05:27;11.63;;;9.63;;
7181;SDS011;3632;42.724;23.298;2022-09-09T02:08:05;11.10;;;10.00;;
7181;SDS011;3632;42.724;23.298;2022-09-09T02:10:35;10.90;;;9.80;;
7181;SDS011;3632;42.724;23.298;2022-09-09T02:13:09;11.00;;;9.70;;
7181;SDS011;3632;42.724;23.298;2022-09-09T02:15:42;11.07;;;9.93;;
7181;SDS011;3632;42.724;23.298;2022-09-09T02:18:12;12.23;;;9.67;;
7181;SDS011;3632;42.724;23.298;2022-09-09T02:20:42;12.33;;;9.67;;
7181;SDS011;3632;42.724;23.298;2022-09-09T02:23:11;10.93;;;9.57;;
7181;SDS011;3632;42.724;23.298;2022-09-09T02:25:40;10.27;;;9.20;;
7181;SDS011;3632;42.724;23.298;2022-09-09T02:28:08;10.17;;;9.27;;
7181;SDS011;3632;42.724;23.298;2022-09-09T02:30:37;10.17;;;8.60;;
7181;SDS011;3632;42.724;23.298;2022-09-09T02:33:12;9.47;;;8.47;;
7181;SDS011;3632;42.724;23.298;2022-09-09T02:35:40;10.97;;;8.23;;
7181;SDS011;3632;42.724;23.298;2022-09-09T02:38:10;10.00;;;8.83;;
7181;SDS011;3632;42.724;23.298;2022-09-09T02:40:40;9.30;;;8.50;;
7181;SDS011;3632;42.724;23.298;2022-09-09T02:43:07;9.60;;;8.13;;
7181;SDS011;3632;42.724;23.298;2022-09-09T02:45:35;10.07;;;9.00;;
7181;SDS011;3632;42.724;23.298;2022-09-09T02:48:11;11.30;;;9.23;;
7181;SDS011;3632;42.724;23.298;2022-09-09T02:50:45;9.60;;;8.70;;
7181;SDS011;3632;42.724;23.298;2022-09-09T02:53:22;9.70;;;8.70;;
7181;SDS011;3632;42.724;23.298;2022-09-09T02:55:54;9.67;;;8.80;;
7181;SDS011;3632;42.724;23.298;2022-09-09T02:58:25;10.30;;;9.20;;
7181;SDS011;3632;42.724;23.298;2022-09-09T03:00:52;9.53;;;8.63;;
7181;SDS011;3632;42.724;23.298;2022-09-09T03:03:20;10.03;;;9.03;;
7181;SDS011;3632;42.724;23.298;2022-09-09T03:05:47;9.67;;;8.70;;
7181;SDS011;3632;42.724;23.298;2022-09-09T03:08:14;10.37;;;8.80;;
7181;SDS011;3632;42.724;23.298;2022-09-09T03:10:42;11.40;;;9.00;;
7181;SDS011;3632;42.724;23.298;2022-09-09T03:13:08;12.70;;;11.60;;
7181;SDS011;3632;42.724;23.298;2022-09-09T03:15:36;12.07;;;10.17;;
7181;SDS011;3632;42.724;23.298;2022-09-09T03:18:03;10.50;;;9.17;;
7181;SDS011;3632;42.724;23.298;2022-09-09T03:20:31;10.07;;;9.00;;
7181;SDS011;3632;42.724;23.298;2022-09-09T03:22:59;12.23;;;9.73;;
7181;SDS011;3632;42.724;23.298;2022-09-09T03:25:27;11.60;;;9.73;;
7181;SDS011;3632;42.724;23.298;2022-09-09T03:27:55;17.37;;;10.77;;
7181;SDS011;3632;42.724;23.298;2022-09-09T03:30:22;13.53;;;10.70;;
7181;SDS011;3632;42.724;23.298;2022-09-09T03:32:50;10.87;;;9.97;;
7181;SDS011;3632;42.724;23.298;2022-09-09T03:35:17;11.00;;;9.90;;
7181;SDS011;3632;42.724;23.298;2022-09-09T03:37:45;12.53;;;10.40;;
7181;SDS011;3632;42.724;23.298;2022-09-09T03:40:14;13.33;;;10.07;;
7181;SDS011;3632;42.724;23.298;2022-09-09T03:42:41;11.10;;;9.70;;
7181;SDS011;3632;42.724;23.298;2022-09-09T03:45:08;11.30;;;9.80;;
7181;SDS011;3632;42.724;23.298;2022-09-09T03:47:36;12.13;;;10.37;;
7181;SDS011;3632;42.724;23.298;2022-09-09T03:50:03;13.37;;;10.30;;
7181;SDS011;3632;42.724;23.298;2022-09-09T03:52:34;11.60;;;10.33;;
7181;SDS011;3632;42.724;23.298;2022-09-09T03:55:03;11.97;;;10.53;;
7181;SDS011;3632;42.724;23.298;2022-09-09T03:57:30;12.30;;;10.23;;
7181;SDS011;3632;42.724;23.298;2022-09-09T03:59:59;12.13;;;9.90;;
7181;SDS011;3632;42.724;23.298;2022-09-09T04:02:27;11.70;;;10.50;;
7181;SDS011;3632;42.724;23.298;2022-09-09T04:04:53;11.43;;;10.23;;
7181;SDS011;3632;42.724;23.298;2022-09-09T04:07:20;11.83;;;10.70;;
7181;SDS011;3632;42.724;23.298;2022-09-09T04:09:47;12.47;;;11.20;;
7181;SDS011;3632;42.724;23.298;2022-09-09T04:12:15;22.53;;;19.07;;
7181;SDS011;3632;42.724;23.298;2022-09-09T04:14:43;19.53;;;13.57;;
7181;SDS011;3632;42.724;23.298;2022-09-09T04:17:09;14.47;;;11.87;;
7181;SDS011;3632;42.724;23.298;2022-09-09T04:19:36;11.53;;;10.37;;
7181;SDS011;3632;42.724;23.298;2022-09-09T04:22:03;13.20;;;10.43;;
7181;SDS011;3632;42.724;23.298;2022-09-09T04:24:30;12.80;;;11.10;;
7181;SDS011;3632;42.724;23.298;2022-09-09T04:26:56;10.93;;;9.93;;
7181;SDS011;3632;42.724;23.298;2022-09-09T04:29:24;15.70;;;14.07;;
7181;SDS011;3632;42.724;23.298;2022-09-09T04:31:51;16.63;;;13.20;;
7181;SDS011;3632;42.724;23.298;2022-09-09T04:34:18;13.50;;;11.20;;
7181;SDS011;3632;42.724;23.298;2022-09-09T04:36:45;12.77;;;10.50;;
7181;SDS011;3632;42.724;23.298;2022-09-09T04:39:11;15.70;;;10.87;;
7181;SDS011;3632;42.724;23.298;2022-09-09T04:41:39;12.60;;;11.13;;
7181;SDS011;3632;42.724;23.298;2022-09-09T04:44:06;13.60;;;10.73;;
7181;SDS011;3632;42.724;23.298;2022-09-09T04:46:34;13.00;;;10.63;;
7181;SDS011;3632;42.724;23.298;2022-09-09T04:49:01;12.83;;;10.80;;
7181;SDS011;3632;42.724;23.298;2022-09-09T04:51:28;24.13;;;18.43;;
7181;SDS011;3632;42.724;23.298;2022-09-09T04:53:56;30.37;;;25.70;;
7181;SDS011;3632;42.724;23.298;2022-09-09T04:56:23;19.43;;;14.67;;
7181;SDS011;3632;42.724;23.298;2022-09-09T04:58:51;14.20;;;11.07;;
7181;SDS011;3632;42.724;23.298;2022-09-09T05:01:20;18.20;;;11.73;;
7181;SDS011;3632;42.724;23.298;2022-09-09T05:03:50;11.87;;;10.70;;
7181;SDS011;3632;42.724;23.298;2022-09-09T05:06:19;12.20;;;11.10;;
7181;SDS011;3632;42.724;23.298;2022-09-09T05:08:46;11.73;;;10.57;;
7181;SDS011;3632;42.724;23.298;2022-09-09T05:11:17;12.97;;;10.57;;
7181;SDS011;3632;42.724;23.298;2022-09-09T05:13:47;12.50;;;11.20;;
7181;SDS011;3632;42.724;23.298;2022-09-09T05:16:15;10.97;;;9.93;;
7181;SDS011;3632;42.724;23.298;2022-09-09T05:18:42;12.97;;;10.83;;
7181;SDS011;3632;42.724;23.298;2022-09-09T05:21:12;14.50;;;11.23;;
7181;SDS011;3632;42.724;23.298;2022-09-09T05:23:40;16.50;;;11.30;;
7181;SDS011;3632;42.724;23.298;2022-09-09T05:26:09;14.47;;;11.50;;
7181;SDS011;3632;42.724;23.298;2022-09-09T05:28:38;12.87;;;11.37;;
7181;SDS011;3632;42.724;23.298;2022-09-09T05:31:05;17.80;;;12.00;;
7181;SDS011;3632;42.724;23.298;2022-09-09T05:33:34;17.43;;;11.60;;
7181;SDS011;3632;42.724;23.298;2022-09-09T05:36:02;15.23;;;11.27;;
7181;SDS011;3632;42.724;23.298;2022-09-09T05:38:32;13.87;;;11.07;;
7181;SDS011;3632;42.724;23.298;2022-09-09T05:40:59;15.63;;;10.53;;
7181;SDS011;3632;42.724;23.298;2022-09-09T05:43:27;15.60;;;10.37;;
7181;SDS011;3632;42.724;23.298;2022-09-09T05:46:01;17.37;;;11.10;;
7181;SDS011;3632;42.724;23.298;2022-09-09T05:48:30;12.93;;;11.43;;
7181;SDS011;3632;42.724;23.298;2022-09-09T05:50:57;13.83;;;11.30;;
7181;SDS011;3632;42.724;23.298;2022-09-09T05:53:25;17.07;;;11.40;;
7181;SDS011;3632;42.724;23.298;2022-09-09T05:55:59;13.60;;;11.50;;
7181;SDS011;3632;42.724;23.298;2022-09-09T05:58:28;14.63;;;11.57;;
7181;SDS011;3632;42.724;23.298;2022-09-09T06:01:00;19.17;;;11.10;;
7181;SDS011;3632;42.724;23.298;2022-09-09T06:03:27;13.87;;;11.00;;
7181;SDS011;3632;42.724;23.298;2022-09-09T06:05:57;12.23;;;11.03;;
7181;SDS011;3632;42.724;23.298;2022-09-09T06:08:25;14.17;;;10.30;;
7181;SDS011;3632;42.724;23.298;2022-09-09T06:10:52;24.90;;;11.23;;
7181;SDS011;3632;42.724;23.298;2022-09-09T06:13:20;20.20;;;11.20;;
7181;SDS011;3632;42.724;23.298;2022-09-09T06:15:50;13.83;;;10.93;;
7181;SDS011;3632;42.724;23.298;2022-09-09T06:18:17;12.83;;;9.70;;
7181;SDS011;3632;42.724;23.298;2022-09-09T06:20:52;17.53;;;11.60;;
7181;SDS011;3632;42.724;23.298;2022-09-09T06:23:20;19.57;;;15.17;;
7181;SDS011;3632;42.724;23.298;2022-09-09T06:25:46;14.10;;;11.03;;
7181;SDS011;3632;42.724;23.298;2022-09-09T06:28:14;13.43;;;9.07;;
7181;SDS011;3632;42.724;23.298;2022-09-09T06:30:42;11.73;;;8.90;;
7181;SDS011;3632;42.724;23.298;2022-09-09T06:33:09;14.87;;;8.67;;
7181;SDS011;3632;42.724;23.298;2022-09-09T06:35:36;12.87;;;8.93;;
7181;SDS011;3632;42.724;23.298;2022-09-09T06:38:02;13.30;;;8.63;;
7181;SDS011;3632;42.724;23.298;2022-09-09T06:40:30;11.17;;;9.80;;
7181;SDS011;3632;42.724;23.298;2022-09-09T06:42:59;12.53;;;9.63;;
7181;SDS011;3632;42.724;23.298;2022-09-09T06:45:26;13.70;;;9.87;;
7181;SDS011;3632;42.724;23.298;2022-09-09T06:47:55;16.13;;;9.07;;
7181;SDS011;3632;42.724;23.298;2022-09-09T06:50:22;13.97;;;8.70;;
7181;SDS011;3632;42.724;23.298;2022-09-09T06:52:49;13.40;;;8.20;;
7181;SDS011;3632;42.724;23.298;2022-09-09T06:55:16;10.17;;;7.13;;
7181;SDS011;3632;42.724;23.298;2022-09-09T06:57:43;11.43;;;6.80;;
7181;SDS011;3632;42.724;23.298;2022-09-09T07:00:10;14.07;;;10.33;;
7181;SDS011;3632;42.724;23.298;2022-09-09T07:02:39;9.00;;;7.50;;
7181;SDS011;3632;42.724;23.298;2022-09-09T07:05:08;10.67;;;7.13;;
7181;SDS011;3632;42.724;23.298;2022-09-09T07:07:35;12.37;;;8.03;;
7181;SDS011;3632;42.724;23.298;2022-09-09T07:10:03;10.47;;;6.90;;
7181;SDS011;3632;42.724;23.298;2022-09-09T07:12:30;13.63;;;9.17;;
7181;SDS011;3632;42.724;23.298;2022-09-09T07:14:57;14.13;;;8.97;;
7181;SDS011;3632;42.724;23.298;2022-09-09T07:17:23;15.90;;;10.43;;
7181;SDS011;3632;42.724;23.298;2022-09-09T07:19:50;11.73;;;7.40;;
7181;SDS011;3632;42.724;23.298;2022-09-09T07:22:18;10.07;;;7.13;;
7181;SDS011;3632;42.724;23.298;2022-09-09T07:24:45;12.30;;;7.87;;
7181;SDS011;3632;42.724;23.298;2022-09-09T07:27:12;12.23;;;7.63;;
7181;SDS011;3632;42.724;23.298;2022-09-09T07:29:38;11.93;;;6.97;;
7181;SDS011;3632;42.724;23.298;2022-09-09T07:32:05;12.87;;;9.10;;
7181;SDS011;3632;42.724;23.298;2022-09-09T07:34:32;11.63;;;7.40;;
7181;SDS011;3632;42.724;23.298;2022-09-09T07:36:58;10.23;;;7.57;;
7181;SDS011;3632;42.724;23.298;2022-09-09T07:39:26;11.43;;;7.27;;
7181;SDS011;3632;42.724;23.298;2022-09-09T07:41:53;11.50;;;6.90;;
7181;SDS011;3632;42.724;23.298;2022-09-09T07:44:21;10.43;;;6.87;;
7181;SDS011;3632;42.724;23.298;2022-09-09T07:46:49;12.13;;;6.40;;
7181;SDS011;3632;42.724;23.298;2022-09-09T07:49:16;9.53;;;5.83;;
7181;SDS011;3632;42.724;23.298;2022-09-09T07:51:44;7.47;;;6.33;;
7181;SDS011;3632;42.724;23.298;2022-09-09T07:54:13;8.97;;;6.60;;
7181;SDS011;3632;42.724;23.298;2022-09-09T07:56:42;9.53;;;6.33;;
7181;SDS011;3632;42.724;23.298;2022-09-09T07:59:09;8.23;;;5.87;;
7181;SDS011;3632;42.724;23.298;2022-09-09T08:01:37;15.43;;;6.70;;
7181;SDS011;3632;42.724;23.298;2022-09-09T08:04:06;18.17;;;7.00;;
7181;SDS011;3632;42.724;23.298;2022-09-09T08:06:35;14.97;;;6.63;;
7181;SDS011;3632;42.724;23.298;2022-09-09T08:09:04;15.40;;;7.23;;
7181;SDS011;3632;42.724;23.298;2022-09-09T08:11:31;11.97;;;6.70;;
7181;SDS011;3632;42.724;23.298;2022-09-09T08:14:00;14.50;;;6.93;;
7181;SDS011;3632;42.724;23.298;2022-09-09T08:16:28;31.80;;;8.30;;
7181;SDS011;3632;42.724;23.298;2022-09-09T08:18:57;23.10;;;8.43;;
7181;SDS011;3632;42.724;23.298;2022-09-09T08:21:26;11.60;;;6.27;;
7181;SDS011;3632;42.724;23.298;2022-09-09T08:23:54;8.47;;;5.93;;
7181;SDS011;3632;42.724;23.298;2022-09-09T08:26:22;9.23;;;6.57;;
7181;SDS011;3632;42.724;23.298;2022-09-09T08:28:51;14.20;;;6.00;;
7181;SDS011;3632;42.724;23.298;2022-09-09T08:31:21;18.40;;;7.00;;
7181;SDS011;3632;42.724;23.298;2022-09-09T08:33:49;17.43;;;7.60;;
7181;SDS011;3632;42.724;23.298;2022-09-09T08:36:17;17.77;;;6.83;;
7181;SDS011;3632;42.724;23.298;2022-09-09T08:38:46;12.07;;;6.20;;
7181;SDS011;3632;42.724;23.298;2022-09-09T08:41:20;20.10;;;7.33;;
7181;SDS011;3632;42.724;23.298;2022-09-09T08:44:07;10.63;;;5.93;;
7181;SDS011;3632;42.724;23.298;2022-09-09T08:46:41;9.63;;;6.20;;
7181;SDS011;3632;42.724;23.298;2022-09-09T08:49:22;8.60;;;6.30;;
7181;SDS011;3632;42.724;23.298;2022-09-09T08:52:06;7.87;;;5.63;;
7181;SDS011;3632;42.724;23.298;2022-09-09T08:54:41;10.03;;;6.40;;
7181;SDS011;3632;42.724;23.298;2022-09-09T08:57:09;12.63;;;6.13;;
7181;SDS011;3632;42.724;23.298;2022-09-09T08:59:40;6.97;;;5.77;;
7181;SDS011;3632;42.724;23.298;2022-09-09T09:02:12;9.77;;;5.73;;
7181;SDS011;3632;42.724;23.298;2022-09-09T09:04:50;10.70;;;5.87;;
7181;SDS011;3632;42.724;23.298;2022-09-09T09:07:28;8.67;;;6.60;;
7181;SDS011;3632;42.724;23.298;2022-09-09T09:10:10;7.70;;;5.97;;
7181;SDS011;3632;42.724;23.298;2022-09-09T09:12:42;6.53;;;5.90;;
7181;SDS011;3632;42.724;23.298;2022-09-09T09:15:14;11.67;;;6.63;;
7181;SDS011;3632;42.724;23.298;2022-09-09T09:17:46;11.33;;;6.57;;
7181;SDS011;3632;42.724;23.298;2022-09-09T09:20:14;8.83;;;6.93;;
7181;SDS011;3632;42.724;23.298;2022-09-09T09:22:44;6.27;;;5.60;;
7181;SDS011;3632;42.724;23.298;2022-09-09T09:25:16;11.73;;;6.77;;
7181;SDS011;3632;42.724;23.298;2022-09-09T09:27:46;9.43;;;6.40;;
7181;SDS011;3632;42.724;23.298;2022-09-09T09:30:20;8.90;;;7.30;;
7181;SDS011;3632;42.724;23.298;2022-09-09T09:32:51;13.47;;;6.83;;
7181;SDS011;3632;42.724;23.298;2022-09-09T09:35:20;9.60;;;7.37;;
7181;SDS011;3632;42.724;23.298;2022-09-09T09:37:47;8.50;;;6.87;;
7181;SDS011;3632;42.724;23.298;2022-09-09T09:40:14;11.10;;;7.87;;
7181;SDS011;3632;42.724;23.298;2022-09-09T09:42:49;11.47;;;7.10;;
7181;SDS011;3632;42.724;23.298;2022-09-09T09:45:21;8.87;;;6.30;;
7181;SDS011;3632;42.724;23.298;2022-09-09T09:47:59;8.90;;;6.40;;
7181;SDS011;3632;42.724;23.298;2022-09-09T09:50:27;11.53;;;6.33;;
7181;SDS011;3632;42.724;23.298;2022-09-09T09:52:56;11.50;;;8.37;;
7181;SDS011;3632;42.724;23.298;2022-09-09T09:55:25;8.83;;;7.40;;
7181;SDS011;3632;42.724;23.298;2022-09-09T09:57:52;8.33;;;6.70;;
7181;SDS011;3632;42.724;23.298;2022-09-09T10:00:20;7.00;;;6.17;;
7181;SDS011;3632;42.724;23.298;2022-09-09T10:02:48;12.73;;;6.80;;
7181;SDS011;3632;42.724;23.298;2022-09-09T10:05:19;10.40;;;7.03;;
7181;SDS011;3632;42.724;23.298;2022-09-09T10:07:57;12.13;;;7.40;;
7181;SDS011;3632;42.724;23.298;2022-09-09T10:10:30;9.20;;;6.33;;
7181;SDS011;3632;42.724;23.298;2022-09-09T10:13:10;10.27;;;6.80;;
7181;SDS011;3632;42.724;23.298;2022-09-09T10:15:43;10.27;;;7.27;;
7181;SDS011;3632;42.724;23.298;2022-09-09T10:18:34;11.07;;;7.23;;
7181;SDS011;3632;42.724;23.298;2022-09-09T10:21:13;9.53;;;6.90;;
7181;SDS011;3632;42.724;23.298;2022-09-09T10:23:52;7.90;;;6.83;;
7181;SDS011;3632;42.724;23.298;2022-09-09T10:26:36;7.83;;;6.83;;
7181;SDS011;3632;42.724;23.298;2022-09-09T10:29:28;8.03;;;6.47;;
7181;SDS011;3632;42.724;23.298;2022-09-09T10:32:12;11.23;;;7.23;;
7181;SDS011;3632;42.724;23.298;2022-09-09T10:34:59;11.87;;;9.83;;
7181;SDS011;3632;42.724;23.298;2022-09-09T10:37:41;10.43;;;7.57;;
7181;SDS011;3632;42.724;23.298;2022-09-09T10:40:20;11.03;;;7.60;;
7181;SDS011;3632;42.724;23.298;2022-09-09T10:42:56;12.03;;;8.17;;
7181;SDS011;3632;42.724;23.298;2022-09-09T10:45:32;8.33;;;7.47;;
7181;SDS011;3632;42.724;23.298;2022-09-09T10:48:14;10.37;;;7.27;;
7181;SDS011;3632;42.724;23.298;2022-09-09T10:50:53;10.33;;;7.13;;
7181;SDS011;3632;42.724;23.298;2022-09-09T10:53:31;11.30;;;8.10;;
7181;SDS011;3632;42.724;23.298;2022-09-09T10:56:06;15.60;;;8.27;;
7181;SDS011;3632;42.724;23.298;2022-09-09T10:58:36;11.37;;;8.17;;
7181;SDS011;3632;42.724;23.298;2022-09-09T11:01:10;12.70;;;7.50;;
7181;SDS011;3632;42.724;23.298;2022-09-09T11:03:42;8.70;;;7.80;;
7181;SDS011;3632;42.724;23.298;2022-09-09T11:06:14;9.50;;;6.90;;
7181;SDS011;3632;42.724;23.298;2022-09-09T11:08:46;12.83;;;6.90;;
7181;SDS011;3632;42.724;23.298;2022-09-09T11:11:15;13.73;;;7.70;;
7181;SDS011;3632;42.724;23.298;2022-09-09T11:13:49;9.70;;;7.20;;
7181;SDS011;3632;42.724;23.298;2022-09-09T11:16:23;8.73;;;6.63;;
7181;SDS011;3632;42.724;23.298;2022-09-09T11:18:55;7.57;;;6.73;;
7181;SDS011;3632;42.724;23.298;2022-09-09T11:21:28;13.77;;;8.23;;
7181;SDS011;3632;42.724;23.298;2022-09-09T11:24:01;11.37;;;7.03;;
7181;SDS011;3632;42.724;23.298;2022-09-09T11:26:32;9.47;;;6.80;;
7181;SDS011;3632;42.724;23.298;2022-09-09T11:29:08;9.93;;;7.07;;
7181;SDS011;3632;42.724;23.298;2022-09-09T11:31:52;9.30;;;6.47;;
7181;SDS011;3632;42.724;23.298;2022-09-09T11:37:17;9.70;;;6.90;;
7181;SDS011;3632;42.724;23.298;2022-09-09T11:40:14;10.03;;;7.47;;
7181;SDS011;3632;42.724;23.298;2022-09-09T11:42:44;14.53;;;10.53;;
7181;SDS011;3632;42.724;23.298;2022-09-09T11:45:20;11.23;;;8.57;;
7181;SDS011;3632;42.724;23.298;2022-09-09T11:47:52;12.17;;;8.80;;
7181;SDS011;3632;42.724;23.298;2022-09-09T11:50:28;10.30;;;7.83;;
7181;SDS011;3632;42.724;23.298;2022-09-09T11:53:04;8.90;;;7.53;;
7181;SDS011;3632;42.724;23.298;2022-09-09T11:55:46;10.83;;;6.93;;
7181;SDS011;3632;42.724;23.298;2022-09-09T11:58:16;9.60;;;7.40;;
7181;SDS011;3632;42.724;23.298;2022-09-09T12:00:46;13.67;;;7.40;;
7181;SDS011;3632;42.724;23.298;2022-09-09T12:06:08;7.40;;;6.70;;
7181;SDS011;3632;42.724;23.298;2022-09-09T12:08:39;10.33;;;7.40;;
7181;SDS011;3632;42.724;23.298;2022-09-09T12:11:11;8.97;;;7.00;;
7181;SDS011;3632;42.724;23.298;2022-09-09T12:13:38;11.20;;;6.80;;
7181;SDS011;3632;42.724;23.298;2022-09-09T12:16:26;16.03;;;7.03;;
7181;SDS011;3632;42.724;23.298;2022-09-09T12:19:02;10.23;;;7.03;;
7181;SDS011;3632;42.724;23.298;2022-09-09T12:21:32;11.60;;;6.80;;
7181;SDS011;3632;42.724;23.298;2022-09-09T12:24:04;10.33;;;7.07;;
7181;SDS011;3632;42.724;23.298;2022-09-09T12:26:36;14.47;;;7.07;;
7181;SDS011;3632;42.724;23.298;2022-09-09T12:29:15;12.60;;;8.10;;
7181;SDS011;3632;42.724;23.298;2022-09-09T12:31:51;11.43;;;7.17;;
7181;SDS011;3632;42.724;23.298;2022-09-09T12:34:32;8.87;;;7.50;;
7181;SDS011;3632;42.724;23.298;2022-09-09T12:37:05;10.47;;;6.90;;
7181;SDS011;3632;42.724;23.298;2022-09-09T12:39:41;12.53;;;11.27;;
7181;SDS011;3632;42.724;23.298;2022-09-09T12:42:19;9.97;;;8.97;;
7181;SDS011;3632;42.724;23.298;2022-09-09T12:44:54;10.77;;;7.50;;
7181;SDS011;3632;42.724;23.298;2022-09-09T12:47:23;10.93;;;7.30;;
7181;SDS011;3632;42.724;23.298;2022-09-09T12:49:56;9.60;;;7.00;;
7181;SDS011;3632;42.724;23.298;2022-09-09T12:52:24;12.50;;;6.40;;
7181;SDS011;3632;42.724;23.298;2022-09-09T12:54:55;14.10;;;5.80;;
7181;SDS011;3632;42.724;23.298;2022-09-09T12:57:24;16.57;;;6.40;;
7181;SDS011;3632;42.724;23.298;2022-09-09T13:00:03;12.40;;;5.67;;
7181;SDS011;3632;42.724;23.298;2022-09-09T13:02:31;11.27;;;5.03;;
7181;SDS011;3632;42.724;23.298;2022-09-09T13:05:05;12.93;;;5.33;;
7181;SDS011;3632;42.724;23.298;2022-09-09T13:07:39;11.97;;;5.10;;
7181;SDS011;3632;42.724;23.298;2022-09-09T13:10:10;11.13;;;5.73;;
7181;SDS011;3632;42.724;23.298;2022-09-09T13:12:39;9.73;;;5.07;;
7181;SDS011;3632;42.724;23.298;2022-09-09T13:15:10;8.57;;;5.40;;
7181;SDS011;3632;42.724;23.298;2022-09-09T13:17:49;9.47;;;5.20;;
7181;SDS011;3632;42.724;23.298;2022-09-09T13:20:19;11.23;;;5.80;;
7181;SDS011;3632;42.724;23.298;2022-09-09T13:22:47;8.27;;;5.50;;
7181;SDS011;3632;42.724;23.298;2022-09-09T13:25:19;6.77;;;5.40;;
7181;SDS011;3632;42.724;23.298;2022-09-09T13:28:01;6.87;;;5.00;;
7181;SDS011;3632;42.724;23.298;2022-09-09T13:30:30;8.43;;;5.40;;
7181;SDS011;3632;42.724;23.298;2022-09-09T13:33:05;16.27;;;5.70;;
7181;SDS011;3632;42.724;23.298;2022-09-09T13:35:47;8.40;;;5.17;;
7181;SDS011;3632;42.724;23.298;2022-09-09T13:38:16;13.60;;;5.70;;
7181;SDS011;3632;42.724;23.298;2022-09-09T13:40:56;6.17;;;5.33;;
7181;SDS011;3632;42.724;23.298;2022-09-09T13:43:28;9.63;;;5.80;;
7181;SDS011;3632;42.724;23.298;2022-09-09T13:45:58;7.23;;;5.83;;
7181;SDS011;3632;42.724;23.298;2022-09-09T13:48:26;9.23;;;6.37;;
7181;SDS011;3632;42.724;23.298;2022-09-09T13:50:58;9.87;;;6.03;;
7181;SDS011;3632;42.724;23.298;2022-09-09T13:53:27;8.00;;;5.63;;
7181;SDS011;3632;42.724;23.298;2022-09-09T13:55:55;7.07;;;6.37;;
7181;SDS011;3632;42.724;23.298;2022-09-09T13:58:22;10.23;;;6.60;;
7181;SDS011;3632;42.724;23.298;2022-09-09T14:00:52;8.67;;;5.57;;
7181;SDS011;3632;42.724;23.298;2022-09-09T14:03:19;9.37;;;5.80;;
7181;SDS011;3632;42.724;23.298;2022-09-09T14:05:46;11.57;;;5.83;;
7181;SDS011;3632;42.724;23.298;2022-09-09T14:08:23;10.40;;;4.97;;
7181;SDS011;3632;42.724;23.298;2022-09-09T14:10:52;6.73;;;4.77;;
7181;SDS011;3632;42.724;23.298;2022-09-09T14:13:22;11.37;;;5.57;;
7181;SDS011;3632;42.724;23.298;2022-09-09T14:15:49;9.27;;;5.53;;
7181;SDS011;3632;42.724;23.298;2022-09-09T14:18:17;9.23;;;5.27;;
7181;SDS011;3632;42.724;23.298;2022-09-09T14:20:44;11.13;;;4.97;;
7181;SDS011;3632;42.724;23.298;2022-09-09T14:23:11;8.83;;;5.47;;
7181;SDS011;3632;42.724;23.298;2022-09-09T14:25:40;10.13;;;5.63;;
7181;SDS011;3632;42.724;23.298;2022-09-09T14:28:08;9.30;;;5.30;;
7181;SDS011;3632;42.724;23.298;2022-09-09T14:30:37;11.50;;;5.20;;
7181;SDS011;3632;42.724;23.298;2022-09-09T14:33:04;10.00;;;5.03;;
7181;SDS011;3632;42.724;23.298;2022-09-09T14:35:32;12.97;;;5.53;;
7181;SDS011;3632;42.724;23.298;2022-09-09T14:37:59;6.93;;;4.93;;
7181;SDS011;3632;42.724;23.298;2022-09-09T14:40:27;7.67;;;4.83;;
7181;SDS011;3632;42.724;23.298;2022-09-09T14:42:54;11.57;;;5.63;;
7181;SDS011;3632;42.724;23.298;2022-09-09T14:45:21;11.45;;;5.65;;
7181;SDS011;3632;42.724;23.298;2022-09-09T14:47:50;13.30;;;6.20;;
7181;SDS011;3632;42.724;23.298;2022-09-09T14:50:17;9.15;;;5.80;;
7181;SDS011;3632;42.724;23.298;2022-09-09T14:52:45;11.68;;;6.05;;
7181;SDS011;3632;42.724;23.298;2022-09-09T14:55:12;13.73;;;7.68;;
7181;SDS011;3632;42.724;23.298;2022-09-09T14:57:40;14.65;;;8.57;;
7181;SDS011;3632;42.724;23.298;2022-09-09T15:00:08;10.63;;;6.30;;
7181;SDS011;3632;42.724;23.298;2022-09-09T15:02:35;12.88;;;6.53;;
7181;SDS011;3632;42.724;23.298;2022-09-09T15:05:03;10.40;;;6.13;;
7181;SDS011;3632;42.724;23.298;2022-09-09T15:07:30;14.23;;;7.20;;
7181;SDS011;3632;42.724;23.298;2022-09-09T15:09:58;16.30;;;7.15;;
7181;SDS011;3632;42.724;23.298;2022-09-09T15:12:25;9.80;;;6.18;;
7181;SDS011;3632;42.724;23.298;2022-09-09T15:14:53;11.70;;;6.00;;